createdAt,value
2023-03-21T00:01:37.548Z,991
2023-03-21T00:04:03.812Z,991
2023-03-21T00:06:29.845Z,990.9
2023-03-21T00:08:56.009Z,991
2023-03-21T00:11:22.191Z,990.9
2023-03-21T00:13:48.199Z,991
2023-03-21T00:16:14.172Z,990.9
2023-03-21T00:18:40.321Z,990.9
2023-03-21T00:21:05.428Z,990.9
2023-03-21T00:23:31.487Z,990.9
2023-03-21T00:25:57.677Z,990.9
2023-03-21T00:28:23.780Z,990.9
2023-03-21T00:30:49.893Z,990.9
2023-03-21T00:33:16.005Z,990.9
2023-03-21T00:35:42.080Z,990.9
2023-03-21T00:38:08.005Z,990.9
2023-03-21T00:40:34.098Z,990.9
2023-03-21T00:43:00.183Z,990.9
2023-03-21T00:45:26.295Z,990.8
2023-03-21T00:47:52.392Z,990.8
2023-03-21T00:50:18.486Z,990.7
2023-03-21T00:52:43.588Z,990.8
2023-03-21T00:55:09.692Z,990.6
2023-03-21T00:57:35.781Z,990.7
2023-03-21T01:00:01.905Z,990.6
2023-03-21T01:02:27.971Z,990.6
2023-03-21T01:04:54.072Z,990.6
2023-03-21T01:07:20.176Z,990.6
2023-03-21T01:09:46.266Z,990.5
2023-03-21T01:12:12.360Z,990.5
2023-03-21T01:14:38.458Z,990.6
2023-03-21T01:17:04.542Z,990.6
2023-03-21T01:19:30.687Z,990.5
2023-03-21T01:21:56.799Z,990.6
2023-03-21T01:24:21.914Z,990.5
2023-03-21T01:26:47.984Z,990.6
2023-03-21T01:29:14.101Z,990.6
2023-03-21T01:31:40.201Z,990.5
2023-03-21T01:34:06.301Z,990.5
2023-03-21T01:36:32.376Z,990.5
2023-03-21T01:38:58.492Z,990.4
2023-03-21T01:41:24.588Z,990.4
2023-03-21T01:43:50.651Z,990.5
2023-03-21T01:46:16.726Z,990.4
2023-03-21T01:48:42.822Z,990.4
2023-03-21T01:51:08.932Z,990.3
2023-03-21T01:53:35.011Z,990.4
2023-03-21T01:56:00.140Z,990.3
2023-03-21T01:58:26.212Z,990.3
2023-03-21T02:00:52.326Z,990.4
2023-03-21T02:03:18.409Z,990.3
2023-03-21T02:05:44.502Z,990.3
2023-03-21T02:08:10.607Z,990.3
2023-03-21T02:10:36.702Z,990.2
2023-03-21T02:13:02.794Z,990.2
2023-03-21T02:15:28.875Z,990.2
2023-03-21T02:17:54.992Z,990.2
2023-03-21T02:20:21.083Z,990.1
2023-03-21T02:22:47.183Z,990.1
2023-03-21T02:25:13.280Z,990.2
2023-03-21T02:27:38.390Z,990.1
2023-03-21T02:30:04.478Z,990.1
2023-03-21T02:32:30.591Z,990.1
2023-03-21T02:34:56.676Z,990.1
2023-03-21T02:37:22.800Z,990.1
2023-03-21T02:39:48.886Z,990.1
2023-03-21T02:42:14.963Z,990.1
2023-03-21T02:44:41.082Z,990.1
2023-03-21T02:47:07.156Z,990.1
2023-03-21T02:49:33.259Z,990.1
2023-03-21T02:51:59.357Z,990.1
2023-03-21T02:54:25.455Z,990
2023-03-21T02:56:51.556Z,990
2023-03-21T02:59:16.671Z,990
2023-03-21T03:01:42.765Z,989.9
2023-03-21T03:04:08.856Z,989.9
2023-03-21T03:06:34.941Z,989.9
2023-03-21T03:09:01.037Z,989.9
2023-03-21T03:11:27.145Z,990
2023-03-21T03:13:53.262Z,989.9
2023-03-21T03:16:19.330Z,989.9
2023-03-21T03:18:45.437Z,990
2023-03-21T03:21:16.614Z,989.9
2023-03-21T03:23:37.657Z,990
2023-03-21T03:26:03.738Z,989.9
2023-03-21T03:28:30.479Z,990
2023-03-21T03:30:55.908Z,989.9
2023-03-21T03:33:21.022Z,989.9
2023-03-21T03:35:47.157Z,989.9
2023-03-21T03:38:13.200Z,989.9
2023-03-21T03:40:39.327Z,989.9
2023-03-21T03:43:05.421Z,989.9
2023-03-21T03:45:37.318Z,989.8
2023-03-21T03:47:57.609Z,989.8
2023-03-21T03:50:33.167Z,989.8
2023-03-21T03:52:49.791Z,989.8
2023-03-21T03:55:15.882Z,989.8
2023-03-21T03:57:41.975Z,989.7
2023-03-21T04:00:08.068Z,989.7
2023-03-21T04:02:34.172Z,989.7
2023-03-21T04:04:59.286Z,989.7
2023-03-21T04:07:25.380Z,989.7
2023-03-21T04:09:51.474Z,989.7
2023-03-21T04:12:17.557Z,989.7
2023-03-21T04:14:43.668Z,989.7
2023-03-21T04:17:09.768Z,989.7
2023-03-21T04:19:36.900Z,989.6
2023-03-21T04:22:02.020Z,989.6
2023-03-21T04:24:50.548Z,989.6
2023-03-21T04:26:57.841Z,989.6
2023-03-21T04:29:20.274Z,989.6
2023-03-21T04:31:46.383Z,989.6
2023-03-21T04:34:12.482Z,989.6
2023-03-21T04:36:37.600Z,989.7
2023-03-21T04:39:03.699Z,989.6
2023-03-21T04:41:29.792Z,989.7
2023-03-21T04:43:55.859Z,989.7
2023-03-21T04:46:21.964Z,989.7
2023-03-21T04:48:48.086Z,989.6
2023-03-21T04:51:14.137Z,989.6
2023-03-21T04:53:40.201Z,989.6
2023-03-21T04:56:06.331Z,989.6
2023-03-21T04:58:38.936Z,989.7
2023-03-21T05:00:58.500Z,989.6
2023-03-21T05:03:24.594Z,989.6
2023-03-21T05:05:50.685Z,989.6
2023-03-21T05:08:15.793Z,989.6
2023-03-21T05:10:41.905Z,989.7
2023-03-21T05:13:07.989Z,989.7
2023-03-21T05:15:34.073Z,989.6
2023-03-21T05:18:00.191Z,989.6
2023-03-21T05:20:26.297Z,989.6
2023-03-21T05:22:52.365Z,989.8
2023-03-21T05:25:18.473Z,989.7
2023-03-21T05:27:44.573Z,989.7
2023-03-21T05:30:10.659Z,989.7
2023-03-21T05:32:36.815Z,989.7
2023-03-21T05:35:02.894Z,989.7
2023-03-21T05:37:28.996Z,989.7
2023-03-21T05:39:54.128Z,989.7
2023-03-21T05:42:20.211Z,989.7
2023-03-21T05:44:46.274Z,989.7
2023-03-21T05:47:12.393Z,989.8
2023-03-21T05:49:38.490Z,989.9
2023-03-21T05:52:04.614Z,989.9
2023-03-21T05:54:30.696Z,989.8
2023-03-21T05:56:56.840Z,989.9
2023-03-21T05:59:22.848Z,989.8
2023-03-21T06:01:48.993Z,989.8
2023-03-21T06:04:15.035Z,989.8
2023-03-21T06:06:41.140Z,989.8
2023-03-21T06:09:07.212Z,989.8
2023-03-21T06:11:32.334Z,989.8
2023-03-21T06:13:58.427Z,989.8
2023-03-21T06:16:24.535Z,989.8
2023-03-21T06:18:50.620Z,989.8
2023-03-21T06:21:16.692Z,989.8
2023-03-21T06:23:42.810Z,989.8
2023-03-21T06:26:08.950Z,989.8
2023-03-21T06:28:34.985Z,989.8
2023-03-21T06:31:01.093Z,989.8
2023-03-21T06:33:27.203Z,989.9
2023-03-21T06:35:53.300Z,989.9
2023-03-21T06:38:19.380Z,989.9
2023-03-21T06:40:45.482Z,989.8
2023-03-21T06:43:10.586Z,989.9
2023-03-21T06:45:36.729Z,989.9
2023-03-21T06:48:02.783Z,989.9
2023-03-21T06:50:28.876Z,989.8
2023-03-21T06:52:54.996Z,989.8
2023-03-21T06:55:21.057Z,989.8
2023-03-21T06:57:47.166Z,989.8
2023-03-21T07:00:13.292Z,989.8
2023-03-21T07:02:39.348Z,989.8
2023-03-21T07:05:05.455Z,989.8
2023-03-21T07:07:31.557Z,989.9
2023-03-21T07:09:57.649Z,989.9
2023-03-21T07:12:23.760Z,989.8
2023-03-21T07:14:48.834Z,989.9
2023-03-21T07:17:14.955Z,989.9
2023-03-21T07:19:41.042Z,989.8
2023-03-21T07:22:07.118Z,989.8
2023-03-21T07:24:33.222Z,989.8
2023-03-21T07:26:59.321Z,989.8
2023-03-21T07:29:25.425Z,989.8
2023-03-21T07:31:51.503Z,989.7
2023-03-21T07:34:17.608Z,989.7
2023-03-21T07:36:43.739Z,989.6
2023-03-21T07:39:09.780Z,989.7
2023-03-21T07:41:35.908Z,989.7
2023-03-21T07:44:01.997Z,989.6
2023-03-21T07:46:27.117Z,989.6
2023-03-21T07:48:53.243Z,989.7
2023-03-21T07:51:19.296Z,989.7
2023-03-21T07:53:45.408Z,989.7
2023-03-21T07:56:11.481Z,989.7
2023-03-21T07:58:37.578Z,989.8
2023-03-21T08:01:03.749Z,989.8
2023-03-21T08:03:29.771Z,989.7
2023-03-21T08:05:55.965Z,989.8
2023-03-21T08:08:21.974Z,989.8
2023-03-21T08:10:48.080Z,989.8
2023-03-21T08:13:14.145Z,989.8
2023-03-21T08:15:40.272Z,989.8
2023-03-21T08:18:05.364Z,989.7
2023-03-21T08:20:31.473Z,989.7
2023-03-21T08:22:57.622Z,989.7
2023-03-21T08:25:23.652Z,989.7
2023-03-21T08:27:49.742Z,989.7
2023-03-21T08:30:15.833Z,989.7
2023-03-21T08:32:41.918Z,989.7
2023-03-21T08:35:08.066Z,989.6
2023-03-21T08:37:34.129Z,989.6
2023-03-21T08:40:00.220Z,989.5
2023-03-21T08:42:26.364Z,989.5
2023-03-21T08:44:52.414Z,989.4
2023-03-21T08:47:18.496Z,989.5
2023-03-21T08:49:43.631Z,989.4
2023-03-21T08:52:09.715Z,989.4
2023-03-21T08:54:35.797Z,989.4
2023-03-21T08:57:01.898Z,989.4
2023-03-21T08:59:28.072Z,989.3
2023-03-21T09:01:54.086Z,989.3
2023-03-21T09:04:20.190Z,989.3
2023-03-21T09:06:46.277Z,989.3
2023-03-21T09:09:12.399Z,989.3
2023-03-21T09:11:38.469Z,989.3
2023-03-21T09:14:04.580Z,989.3
2023-03-21T09:16:30.662Z,989.4
2023-03-21T09:18:56.823Z,989.4
2023-03-21T09:21:21.902Z,989.3
2023-03-21T09:23:47.974Z,989.3
2023-03-21T09:26:14.066Z,989.3
2023-03-21T09:28:40.166Z,989.4
2023-03-21T09:31:06.255Z,989.3
2023-03-21T09:33:32.357Z,989.3
2023-03-21T09:35:58.462Z,989.2
2023-03-21T09:38:24.545Z,989.2
2023-03-21T09:40:50.643Z,989.2
2023-03-21T09:43:16.735Z,989.2
2023-03-21T09:45:42.817Z,989.2
2023-03-21T09:48:08.920Z,989.2
2023-03-21T09:50:35.023Z,989.2
2023-03-21T09:53:00.144Z,989.2
2023-03-21T09:55:26.219Z,989.1
2023-03-21T09:57:52.308Z,989.2
2023-03-21T10:00:18.425Z,989.1
2023-03-21T10:02:44.513Z,989.1
2023-03-21T10:05:10.626Z,989.1
2023-03-21T10:07:36.696Z,989
2023-03-21T10:10:02.824Z,989
2023-03-21T10:12:28.898Z,989
2023-03-21T10:14:54.993Z,988.9
2023-03-21T10:17:21.095Z,988.9
2023-03-21T10:19:47.178Z,989
2023-03-21T10:22:13.289Z,988.9
2023-03-21T10:24:38.430Z,988.9
2023-03-21T10:27:04.643Z,988.8
2023-03-21T10:29:30.712Z,988.8
2023-03-21T10:31:56.777Z,988.8
2023-03-21T10:34:22.972Z,988.7
2023-03-21T10:36:48.077Z,988.7
2023-03-21T10:39:14.231Z,988.7
2023-03-21T10:41:40.216Z,988.6
2023-03-21T10:44:06.189Z,988.7
2023-03-21T10:46:32.277Z,988.6
2023-03-21T10:48:58.534Z,988.6
2023-03-21T10:51:24.641Z,988.6
2023-03-21T10:53:50.657Z,988.6
2023-03-21T10:56:16.696Z,988.5
2023-03-21T10:58:42.844Z,988.5
2023-03-21T11:01:08.899Z,988.6
2023-03-21T11:03:35.069Z,988.6
2023-03-21T11:06:01.022Z,988.6
2023-03-21T11:08:26.328Z,988.5
2023-03-21T11:10:52.396Z,988.5
2023-03-21T11:13:18.471Z,988.6
2023-03-21T11:15:44.430Z,988.6
2023-03-21T11:18:10.697Z,988.5
2023-03-21T11:20:36.786Z,988.5
2023-03-21T11:23:02.876Z,988.5
2023-03-21T11:25:28.969Z,988.5
2023-03-21T11:27:55.114Z,988.5
2023-03-21T11:30:21.123Z,988.4
2023-03-21T11:32:47.182Z,988.4
2023-03-21T11:35:13.344Z,988.4
2023-03-21T11:37:39.474Z,988.4
2023-03-21T11:40:04.560Z,988.3
2023-03-21T11:42:30.652Z,988.4
2023-03-21T11:44:56.697Z,988.3
2023-03-21T11:47:22.788Z,988.4
2023-03-21T11:49:48.785Z,988.2
2023-03-21T11:52:14.872Z,988.3
2023-03-21T11:54:40.977Z,988.3
2023-03-21T11:57:07.171Z,988.2
2023-03-21T11:59:33.152Z,988.2
2023-03-21T12:01:59.332Z,988.1
2023-03-21T12:04:25.399Z,988.1
2023-03-21T12:06:51.638Z,988.1
2023-03-21T12:09:17.646Z,988.1
2023-03-21T12:11:42.640Z,988
2023-03-21T12:14:08.867Z,988
2023-03-21T12:16:34.958Z,987.9
2023-03-21T12:19:00.965Z,987.9
2023-03-21T12:21:27.033Z,987.8
2023-03-21T12:23:53.242Z,987.8
2023-03-21T12:26:19.216Z,987.8
2023-03-21T12:28:45.333Z,987.7
2023-03-21T12:31:11.467Z,987.7
2023-03-21T12:33:37.503Z,987.7
2023-03-21T12:36:03.667Z,987.6
2023-03-21T12:38:29.825Z,987.6
2023-03-21T12:40:55.786Z,987.6
2023-03-21T12:43:20.952Z,987.5
2023-03-21T12:45:46.969Z,987.6
2023-03-21T12:48:13.154Z,987.5
2023-03-21T12:50:39.182Z,987.5
2023-03-21T12:53:05.433Z,987.5
2023-03-21T12:55:31.466Z,987.5
2023-03-21T12:57:57.447Z,987.5
2023-03-21T13:00:23.556Z,987.5
2023-03-21T13:02:49.648Z,987.5
2023-03-21T13:05:15.733Z,987.5
2023-03-21T13:07:41.906Z,987.5
2023-03-21T13:10:07.930Z,987.5
2023-03-21T13:12:34.086Z,987.4
2023-03-21T13:14:59.155Z,987.4
2023-03-21T13:17:25.239Z,987.4
2023-03-21T13:19:51.326Z,987.3
2023-03-21T13:22:17.509Z,987.2
2023-03-21T13:24:43.606Z,987.3
2023-03-21T13:27:09.605Z,987.3
2023-03-21T13:29:35.720Z,987.3
2023-03-21T13:32:01.940Z,987.2
2023-03-21T13:34:27.885Z,987.2
2023-03-21T13:36:54.094Z,987.2
2023-03-21T13:39:20.259Z,987.2
2023-03-21T13:41:46.183Z,987.1
2023-03-21T13:44:12.327Z,987.1
2023-03-21T13:46:37.457Z,987
2023-03-21T13:49:03.562Z,987
2023-03-21T13:51:29.586Z,987
2023-03-21T13:53:55.660Z,987.1
2023-03-21T13:56:22.008Z,987
2023-03-21T13:58:47.996Z,987
2023-03-21T14:01:14.057Z,986.9
2023-03-21T14:03:40.213Z,987
2023-03-21T14:06:06.379Z,987
2023-03-21T14:08:32.419Z,986.9
2023-03-21T14:10:58.513Z,986.9
2023-03-21T14:13:24.409Z,986.9
2023-03-21T14:15:50.714Z,986.9
2023-03-21T14:18:15.627Z,987
2023-03-21T14:20:41.896Z,986.9
2023-03-21T14:23:07.829Z,986.9
2023-03-21T14:25:34.073Z,986.9
2023-03-21T14:28:00.176Z,986.9
2023-03-21T14:30:26.161Z,986.8
2023-03-21T14:32:52.192Z,986.8
2023-03-21T14:35:18.301Z,986.8
2023-03-21T14:37:44.495Z,986.7
2023-03-21T14:40:10.552Z,986.7
2023-03-21T14:42:36.620Z,986.6
2023-03-21T14:45:02.835Z,986.6
2023-03-21T14:47:28.829Z,986.7
2023-03-21T14:49:53.886Z,986.6
2023-03-21T14:52:20.015Z,986.6
2023-03-21T14:54:46.102Z,986.5
2023-03-21T14:57:12.181Z,986.5
2023-03-21T14:59:38.254Z,986.5
2023-03-21T15:02:04.393Z,986.5
2023-03-21T15:04:30.641Z,986.5
2023-03-21T15:06:56.635Z,986.5
2023-03-21T15:09:22.699Z,986.5
2023-03-21T15:11:48.850Z,986.5
2023-03-21T15:14:14.819Z,986.5
2023-03-21T15:16:40.997Z,986.6
2023-03-21T15:19:07.071Z,986.5
2023-03-21T15:21:32.133Z,986.5
2023-03-21T15:23:58.329Z,986.5
2023-03-21T15:26:24.524Z,986.5
2023-03-21T15:28:50.421Z,986.5
2023-03-21T15:31:16.694Z,986.5
2023-03-21T15:33:42.752Z,986.4
2023-03-21T15:36:08.852Z,986.4
2023-03-21T15:38:35.029Z,986.4
2023-03-21T15:41:01.077Z,986.5
2023-03-21T15:43:27.192Z,986.4
2023-03-21T15:45:53.555Z,986.5
2023-03-21T15:48:19.167Z,986.4
2023-03-21T15:50:45.479Z,986.5
2023-03-21T15:53:10.551Z,986.5
2023-03-21T15:55:36.611Z,986.5
2023-03-21T15:58:02.746Z,986.5
2023-03-21T16:00:28.836Z,986.4
2023-03-21T16:02:54.854Z,986.5
2023-03-21T16:05:20.961Z,986.5
2023-03-21T16:07:47.129Z,986.5
2023-03-21T16:10:13.046Z,986.6
2023-03-21T16:12:39.316Z,986.6
2023-03-21T16:15:05.447Z,986.5
2023-03-21T16:17:31.507Z,986.6
2023-03-21T16:19:57.434Z,986.6
2023-03-21T16:22:23.628Z,986.6
2023-03-21T16:24:48.800Z,986.5
2023-03-21T16:27:14.809Z,986.6
2023-03-21T16:29:40.863Z,986.5
2023-03-21T16:32:06.989Z,986.6
2023-03-21T16:34:33.177Z,986.6
2023-03-21T16:36:59.709Z,986.6
2023-03-21T16:39:25.463Z,986.5
2023-03-21T16:41:51.457Z,986.6
2023-03-21T16:44:17.550Z,986.6
2023-03-21T16:46:43.571Z,986.7
2023-03-21T16:49:09.683Z,986.7
2023-03-21T16:51:35.716Z,986.8
2023-03-21T16:54:01.795Z,986.7
2023-03-21T16:56:27.055Z,986.8
2023-03-21T16:58:53.002Z,986.8
2023-03-21T17:01:19.084Z,986.8
2023-03-21T17:03:45.259Z,986.7
2023-03-21T17:06:11.427Z,986.8
2023-03-21T17:08:37.415Z,986.8
2023-03-21T17:11:03.541Z,986.9
2023-03-21T17:13:29.559Z,986.9
2023-03-21T17:15:55.663Z,986.9
2023-03-21T17:18:21.772Z,987
2023-03-21T17:20:47.912Z,986.9
2023-03-21T17:23:14.044Z,986.9
2023-03-21T17:25:40.090Z,986.9
2023-03-21T17:28:05.293Z,986.9
2023-03-21T17:30:31.400Z,986.8
2023-03-21T17:32:57.529Z,986.9
2023-03-21T17:35:23.504Z,986.9
2023-03-21T17:37:49.521Z,986.9
2023-03-21T17:40:15.642Z,986.9
2023-03-21T17:42:41.719Z,987
2023-03-21T17:45:07.969Z,986.9
2023-03-21T17:47:34.041Z,986.9
2023-03-21T17:50:00.135Z,986.9
2023-03-21T17:52:26.278Z,987
2023-03-21T17:54:52.371Z,986.9
2023-03-21T17:57:18.459Z,986.9
2023-03-21T17:59:43.529Z,986.9
2023-03-21T18:02:09.662Z,986.9
2023-03-21T18:04:35.658Z,986.9
2023-03-21T18:07:01.807Z,986.9
2023-03-21T18:09:27.897Z,986.9
2023-03-21T18:11:54.027Z,987
2023-03-21T18:14:20.126Z,986.9
2023-03-21T18:16:46.257Z,987.1
2023-03-21T18:19:12.306Z,987
2023-03-21T18:21:38.492Z,987.1
2023-03-21T18:24:04.447Z,987.1
2023-03-21T18:26:30.495Z,987.1
2023-03-21T18:28:56.557Z,987.1
2023-03-21T18:31:21.895Z,987
2023-03-21T18:33:47.916Z,987.2
2023-03-21T18:36:14.081Z,987.1
2023-03-21T18:38:40.101Z,987.2
2023-03-21T18:41:06.086Z,987.2
2023-03-21T18:43:32.232Z,987.1
2023-03-21T18:45:57.385Z,987.2
2023-03-21T18:48:23.506Z,987.2
2023-03-21T18:50:49.588Z,987.2
2023-03-21T18:53:15.602Z,987.1
2023-03-21T18:55:41.759Z,987.1
2023-03-21T18:58:07.773Z,987.1
2023-03-21T19:00:33.962Z,987.1
2023-03-21T19:03:00.332Z,987.1
2023-03-21T19:05:26.220Z,987.1
2023-03-21T19:07:52.274Z,987.1
2023-03-21T19:10:18.288Z,987
2023-03-21T19:12:44.501Z,987
2023-03-21T19:15:10.550Z,986.9
2023-03-21T19:17:35.526Z,987
2023-03-21T19:20:01.657Z,987
2023-03-21T19:22:27.691Z,987
2023-03-21T19:24:53.935Z,987
2023-03-21T19:27:19.907Z,987.1
2023-03-21T19:29:46.071Z,987.1
2023-03-21T19:32:12.261Z,987.1
2023-03-21T19:34:38.298Z,987.1
2023-03-21T19:37:04.510Z,987.2
2023-03-21T19:39:30.357Z,987.1
2023-03-21T19:44:22.603Z,987
2023-03-21T19:46:48.756Z,987.1
2023-03-21T19:49:13.846Z,986.9
2023-03-21T19:51:39.981Z,986.9
2023-03-21T19:54:05.957Z,986.8
2023-03-21T19:56:32.236Z,986.7
2023-03-21T19:58:58.170Z,986.7
2023-03-21T20:01:24.412Z,986.7
2023-03-21T20:03:50.417Z,986.9
2023-03-21T20:06:16.460Z,987
2023-03-21T20:08:42.527Z,987
2023-03-21T20:11:08.634Z,987.1
2023-03-21T20:13:34.767Z,987
2023-03-21T20:16:00.845Z,987
2023-03-21T20:18:26.929Z,987
2023-03-21T20:20:52.090Z,987
2023-03-21T20:23:18.143Z,987.1
2023-03-21T20:25:44.315Z,987.2
2023-03-21T20:28:10.325Z,987.1
2023-03-21T20:30:36.458Z,987.1
2023-03-21T20:33:02.584Z,987.1
2023-03-21T20:35:28.649Z,987
2023-03-21T20:37:54.697Z,987
2023-03-21T20:40:20.802Z,986.9
2023-03-21T20:42:46.968Z,987
2023-03-21T20:45:12.975Z,987.1
2023-03-21T20:47:39.214Z,987.1
2023-03-21T20:50:05.214Z,987.1
2023-03-21T20:52:30.283Z,987.1
2023-03-21T20:54:56.517Z,987.2
2023-03-21T20:57:22.480Z,987.2
2023-03-21T20:59:48.562Z,987.2
2023-03-21T21:02:14.683Z,987.2
2023-03-21T21:04:40.793Z,987.2
2023-03-21T21:07:06.856Z,987.2
2023-03-21T21:09:33.049Z,987.2
2023-03-21T21:11:59.204Z,987.1
2023-03-21T21:14:25.150Z,987.2
2023-03-21T21:16:51.242Z,987.1
2023-03-21T21:19:17.344Z,987.2
2023-03-21T21:21:43.484Z,987.2
2023-03-21T21:24:08.542Z,987.2
2023-03-21T21:26:34.651Z,987.2
2023-03-21T21:29:00.725Z,987.2
2023-03-21T21:31:26.865Z,987.2
2023-03-21T21:33:52.937Z,987.2
2023-03-21T21:36:19.038Z,987.2
2023-03-21T21:38:45.117Z,987.2
2023-03-21T21:41:11.275Z,987.1
2023-03-21T21:43:37.319Z,987
2023-03-21T21:46:03.524Z,987.1
2023-03-21T21:48:29.505Z,987
2023-03-21T21:50:55.653Z,987.1
2023-03-21T21:53:21.701Z,986.9
2023-03-21T21:55:46.806Z,986.9
2023-03-21T21:58:13.035Z,986.9
2023-03-21T22:00:39.041Z,986.9
2023-03-21T22:03:05.140Z,986.9
2023-03-21T22:05:31.275Z,986.9
2023-03-21T22:07:57.280Z,986.9
2023-03-21T22:10:23.369Z,986.8
2023-03-21T22:12:49.477Z,986.9
2023-03-21T22:15:15.583Z,986.9
2023-03-21T22:17:41.776Z,986.9
2023-03-21T22:20:07.826Z,986.9
2023-03-21T22:22:33.964Z,987
2023-03-21T22:25:00.088Z,986.9
2023-03-21T22:27:25.055Z,986.9
2023-03-21T22:29:51.349Z,986.9
2023-03-21T22:32:17.255Z,986.9
2023-03-21T22:34:43.349Z,987
2023-03-21T22:37:09.436Z,987
2023-03-21T22:39:35.598Z,987.1
2023-03-21T22:42:01.818Z,986.9
2023-03-21T22:44:27.746Z,987
2023-03-21T22:46:53.863Z,987
2023-03-21T22:49:19.994Z,987
2023-03-21T22:51:46.184Z,987
2023-03-21T22:54:12.130Z,987
2023-03-21T22:56:38.271Z,987.1
2023-03-21T22:59:03.441Z,987.1
2023-03-21T23:01:29.518Z,987.1
2023-03-21T23:03:55.527Z,987.1
2023-03-21T23:06:21.603Z,987.1
2023-03-21T23:08:47.708Z,987.1
2023-03-21T23:11:13.878Z,987.2
2023-03-21T23:13:39.922Z,987.1
2023-03-21T23:16:06.016Z,987.1
2023-03-21T23:18:32.087Z,987.1
2023-03-21T23:20:58.292Z,987
2023-03-21T23:23:24.305Z,987.1
2023-03-21T23:25:50.405Z,987.1
2023-03-21T23:28:16.563Z,987.1
2023-03-21T23:30:41.728Z,987.1
2023-03-21T23:33:07.678Z,987.1
2023-03-21T23:35:33.774Z,987.1
2023-03-21T23:37:59.874Z,987.2
2023-03-21T23:40:26.111Z,987.1
2023-03-21T23:42:52.076Z,987.2
2023-03-21T23:45:18.205Z,987.1
2023-03-21T23:47:44.270Z,987.1
2023-03-21T23:50:10.508Z,987.1
2023-03-21T23:52:36.560Z,987.1
2023-03-21T23:55:02.639Z,987.1
2023-03-21T23:57:28.631Z,987.1
2023-03-21T23:59:54.841Z,987.1
